Time;durP1;ratioP1;P1;durP2;ratioP2;P2;SDS_P1;SDS_P2;PMS_P1;PMS_P2;Temp;Humidity;BMP_temperature;BMP_pressure;BME280_temperature;BME280_humidity;BME280_pressure;Samples;Min_cycle;Max_cycle;Signal;HPM_P1;HPM_P2
2021/09/04 00:02:25;;;;;;;0.23;0.13;;;17.00;99.90;;;;;;5104326;28;20139;-90
2021/09/04 00:04:50;;;;;;;0.23;0.23;;;17.00;99.90;;;;;;5103793;27;20027;-91
2021/09/04 00:07:16;;;;;;;2.70;0.87;;;17.00;99.90;;;;;;5107994;27;20054;-90
2021/09/04 00:09:42;;;;;;;0.30;0.30;;;17.10;99.90;;;;;;5106137;28;20035;-91
2021/09/04 00:12:08;;;;;;;0.10;0.10;;;17.10;99.90;;;;;;5128081;27;20038;-92
2021/09/04 00:14:34;;;;;;;0.30;0.30;;;17.10;99.90;;;;;;5103005;28;20090;-89
2021/09/04 00:17:00;;;;;;;0.30;0.30;;;17.10;99.90;;;;;;5100348;28;20038;-90
2021/09/04 00:19:26;;;;;;;0.13;0.13;;;17.10;99.90;;;;;;5103174;28;20035;-90
2021/09/04 00:21:52;;;;;;;0.33;0.30;;;17.10;99.90;;;;;;5101374;28;20554;-89
2021/09/04 00:24:17;;;;;;;0.10;0.10;;;17.20;99.90;;;;;;5101805;28;20873;-91
2021/09/04 00:26:43;;;;;;;0.10;0.10;;;17.30;99.90;;;;;;5101896;28;20421;-90
2021/09/04 00:29:09;;;;;;;0.20;0.20;;;17.50;99.90;;;;;;5104434;28;20135;-89
2021/09/04 00:31:34;;;;;;;1.17;0.50;;;17.60;99.90;;;;;;5101229;28;20084;-89
2021/09/04 00:34:00;;;;;;;0.17;0.13;;;17.70;99.90;;;;;;5100153;27;20039;-90
2021/09/04 00:36:25;;;;;;;0.20;0.20;;;17.70;99.90;;;;;;5100547;28;20027;-89
2021/09/04 00:38:51;;;;;;;0.20;0.20;;;17.80;99.90;;;;;;5102504;27;20723;-88
2021/09/04 00:41:21;;;;;;;0.07;0.07;;;17.70;99.90;;;;;;5103432;27;20293;-88
2021/09/04 00:43:48;;;;;;;0.45;0.40;;;17.50;99.90;;;;;;5101084;28;20035;-89
2021/09/04 00:46:14;;;;;;;0.10;0.10;;;17.30;99.90;;;;;;5101857;27;20020;-90
2021/09/04 00:48:40;;;;;;;0.47;0.45;;;17.10;99.90;;;;;;5102795;28;20459;-90
2021/09/04 00:51:06;;;;;;;0.50;0.37;;;16.90;99.90;;;;;;5100729;28;20036;-90
2021/09/04 00:53:32;;;;;;;0.35;0.35;;;16.90;99.90;;;;;;5100890;28;20035;-89
2021/09/04 00:55:58;;;;;;;0.10;0.10;;;16.80;99.90;;;;;;5101369;28;20092;-90
2021/09/04 00:58:24;;;;;;;0.35;0.15;;;16.70;99.90;;;;;;5102847;28;20694;-89
2021/09/04 01:00:52;;;;;;;0.10;0.10;;;16.70;99.90;;;;;;5103619;28;20067;-90
2021/09/04 01:03:19;;;;;;;0.10;0.10;;;16.70;99.90;;;;;;5107382;27;20039;-90
2021/09/04 01:05:48;;;;;;;5.38;0.75;;;16.60;99.90;;;;;;5098300;28;20019;-89
2021/09/04 01:08:14;;;;;;;0.13;0.13;;;16.70;99.90;;;;;;5100068;28;20046;-90
2021/09/04 01:10:39;;;;;;;0.00;0.00;;;16.60;99.90;;;;;;5104312;27;20028;-90
2021/09/04 01:13:05;;;;;;;0.27;0.27;;;16.60;99.90;;;;;;5101564;28;20081;-88
2021/09/04 01:15:31;;;;;;;6.93;1.03;;;16.50;99.90;;;;;;5103180;28;20027;-89
2021/09/04 01:18:01;;;;;;;0.30;0.30;;;16.50;99.90;;;;;;5098528;28;20051;-90
2021/09/04 01:20:27;;;;;;;0.20;0.20;;;16.50;99.90;;;;;;5100200;28;20049;-89
2021/09/04 01:22:52;;;;;;;0.10;0.10;;;16.90;99.90;;;;;;5092981;28;20031;-90
2021/09/04 01:25:24;;;;;;;0.10;0.10;;;17.20;99.90;;;;;;5103643;27;20058;-89
2021/09/04 01:27:51;;;;;;;0.25;0.25;;;17.30;99.90;;;;;;5102989;28;20023;-89
2021/09/04 01:30:16;;;;;;;0.10;0.10;;;17.30;99.90;;;;;;5102079;28;20031;-88
2021/09/04 01:32:42;;;;;;;0.63;0.50;;;17.40;99.90;;;;;;5101811;28;20056;-89
2021/09/04 01:35:10;;;;;;;0.27;0.27;;;17.40;99.90;;;;;;5100290;28;20054;-90
2021/09/04 01:37:36;;;;;;;0.20;0.17;;;17.50;99.90;;;;;;5101544;27;20097;-90
2021/09/04 01:40:07;;;;;;;0.13;0.13;;;17.50;99.90;;;;;;5100187;28;20032;-90
2021/09/04 01:42:33;;;;;;;0.20;0.20;;;17.50;99.90;;;;;;5101789;28;20040;-90
2021/09/04 01:44:58;;;;;;;4.30;0.87;;;17.40;99.90;;;;;;5102012;28;20394;-89
2021/09/04 01:47:26;;;;;;;0.10;0.10;;;17.40;99.90;;;;;;5101026;27;20494;-90
2021/09/04 01:49:55;;;;;;;0.10;0.10;;;17.40;99.90;;;;;;5100393;28;20031;-90
2021/09/04 01:52:21;;;;;;;0.60;0.60;;;17.40;99.90;;;;;;5098831;28;20024;-90
2021/09/04 01:54:51;;;;;;;0.10;0.10;;;17.50;99.90;;;;;;5102502;28;20151;-90
2021/09/04 01:57:18;;;;;;;0.20;0.20;;;17.50;99.90;;;;;;5100217;28;20036;-91
2021/09/04 01:59:43;;;;;;;;;;;17.60;99.90;;;;;;5103257;28;20042;-89
2021/09/04 02:02:09;;;;;;;0.32;0.32;;;17.10;99.90;;;;;;5101578;27;19912;-90
2021/09/04 02:04:35;;;;;;;0.50;0.10;;;17.00;99.90;;;;;;5101255;28;20568;-90
2021/09/04 02:07:02;;;;;;;0.17;0.17;;;16.90;99.90;;;;;;5101272;28;20051;-90
2021/09/04 02:09:27;;;;;;;;;;;16.80;99.90;;;;;;5102252;28;20154;-90
2021/09/04 02:11:53;;;;;;;0.20;0.20;;;16.70;99.90;;;;;;5099080;28;19936;-90
2021/09/04 02:14:18;;;;;;;0.10;0.10;;;16.70;99.90;;;;;;5100377;28;20078;-88
2021/09/04 02:16:44;;;;;;;0.40;0.40;;;16.70;99.90;;;;;;5106270;27;20023;-90
2021/09/04 02:19:10;;;;;;;0.87;0.43;;;16.70;99.90;;;;;;5100337;28;20201;-90
2021/09/04 02:21:36;;;;;;;0.10;0.10;;;16.60;99.90;;;;;;5101033;28;20030;-90
2021/09/04 02:24:01;;;;;;;0.03;0.03;;;16.70;99.90;;;;;;5100231;28;20031;-90
2021/09/04 02:26:27;;;;;;;0.63;0.50;;;16.70;99.90;;;;;;5099556;28;20054;-90
2021/09/04 02:28:55;;;;;;;0.07;0.07;;;16.90;99.90;;;;;;5100244;28;20807;-90
2021/09/04 02:31:23;;;;;;;0.50;0.28;;;17.00;99.90;;;;;;5099108;28;20115;-90
2021/09/04 02:33:50;;;;;;;0.25;0.10;;;16.90;99.90;;;;;;5101298;28;20038;-89
2021/09/04 02:36:16;;;;;;;0.68;0.55;;;16.90;99.90;;;;;;5103550;28;20106;-89
2021/09/04 02:38:41;;;;;;;0.17;0.10;;;16.90;99.90;;;;;;5097225;28;20684;-90
2021/09/04 02:41:07;;;;;;;0.10;0.10;;;16.90;99.90;;;;;;5099462;28;20026;-90
2021/09/04 02:43:33;;;;;;;0.07;0.07;;;17.00;99.90;;;;;;5100969;27;20459;-90
2021/09/04 02:45:58;;;;;;;0.07;0.07;;;17.00;99.90;;;;;;5099976;28;20028;-89
2021/09/04 02:48:24;;;;;;;0.10;0.10;;;17.00;99.90;;;;;;5100809;28;20034;-89
2021/09/04 02:50:50;;;;;;;0.13;0.13;;;17.00;99.90;;;;;;5097965;28;20510;-90
2021/09/04 02:53:15;;;;;;;0.37;0.37;;;17.00;99.90;;;;;;5099946;28;20027;-90
2021/09/04 02:55:41;;;;;;;0.40;0.40;;;17.10;99.90;;;;;;5096347;28;20035;-91
2021/09/04 02:58:07;;;;;;;0.10;0.10;;;17.10;99.90;;;;;;5098741;28;20043;-90
2021/09/04 03:00:33;;;;;;;0.20;0.20;;;17.10;99.90;;;;;;5100508;28;20119;-88
2021/09/04 03:02:58;;;;;;;0.30;0.30;;;17.10;99.90;;;;;;5098823;28;20123;-88
2021/09/04 03:05:24;;;;;;;0.40;0.40;;;17.00;99.90;;;;;;5100519;28;20035;-89
2021/09/04 03:07:50;;;;;;;1.40;0.43;;;17.00;99.90;;;;;;5099880;27;20116;-89
2021/09/04 03:10:17;;;;;;;0.20;0.20;;;17.00;99.90;;;;;;5101176;28;20036;-89
2021/09/04 03:12:44;;;;;;;0.98;0.85;;;17.10;99.90;;;;;;5099335;28;20058;-89
2021/09/04 03:15:10;;;;;;;0.47;0.45;;;17.00;99.90;;;;;;5100429;28;20584;-88
2021/09/04 03:17:36;;;;;;;0.30;0.30;;;16.90;99.90;;;;;;5100672;28;20070;-88
2021/09/04 03:20:02;;;;;;;0.33;0.33;;;16.90;99.90;;;;;;5100650;28;20501;-90
2021/09/04 03:22:28;;;;;;;2.08;0.35;;;17.00;99.90;;;;;;5099086;28;20088;-90
2021/09/04 03:24:54;;;;;;;0.00;0.00;;;17.10;99.90;;;;;;5098864;28;20035;-89
2021/09/04 03:27:19;;;;;;;0.93;0.33;;;17.20;99.90;;;;;;5098904;28;20035;-88
2021/09/04 03:29:45;;;;;;;1.27;0.83;;;17.20;99.90;;;;;;5099189;28;20036;-89
2021/09/04 03:32:10;;;;;;;0.40;0.40;;;17.20;99.90;;;;;;5097997;28;20038;-89
2021/09/04 03:34:36;;;;;;;0.23;0.23;;;17.20;99.90;;;;;;5099571;28;20032;-89
2021/09/04 03:37:02;;;;;;;0.20;0.17;;;17.20;99.90;;;;;;5099733;28;20028;-89
2021/09/04 03:39:28;;;;;;;0.33;0.33;;;17.20;99.90;;;;;;5100117;28;20040;-89
2021/09/04 03:41:53;;;;;;;0.10;0.10;;;17.40;99.90;;;;;;5100153;28;20047;-89
2021/09/04 03:44:19;;;;;;;0.10;0.10;;;17.60;99.90;;;;;;5099889;28;20353;-89
2021/09/04 03:46:45;;;;;;;0.00;0.00;;;17.60;99.90;;;;;;5099650;28;20027;-88
2021/09/04 03:49:10;;;;;;;0.10;0.10;;;17.70;99.90;;;;;;5099244;28;20036;-89
2021/09/04 03:51:36;;;;;;;0.17;0.17;;;17.80;99.90;;;;;;5100013;28;20542;-89
2021/09/04 03:54:01;;;;;;;0.20;0.20;;;17.80;99.90;;;;;;5097771;28;20102;-89
2021/09/04 03:56:27;;;;;;;0.67;0.43;;;17.80;99.90;;;;;;5096974;28;20413;-89
2021/09/04 03:58:53;;;;;;;1.43;0.67;;;17.80;99.90;;;;;;5100171;28;20070;-89
2021/09/04 04:01:20;;;;;;;0.20;0.20;;;17.90;99.90;;;;;;5102110;28;20903;-89
2021/09/04 04:03:45;;;;;;;;;;;17.90;99.90;;;;;;5098472;28;20039;-90
2021/09/04 04:06:11;;;;;;;0.10;0.10;;;17.90;99.90;;;;;;5101090;28;20286;-89
2021/09/04 04:08:36;;;;;;;0.10;0.10;;;17.70;99.90;;;;;;5098715;28;20026;-90
2021/09/04 04:11:08;;;;;;;0.20;0.20;;;17.70;99.90;;;;;;5100674;28;20066;-90
2021/09/04 04:13:34;;;;;;;0.10;0.10;;;17.70;99.90;;;;;;5103336;28;20085;-90
2021/09/04 04:16:00;;;;;;;0.10;0.10;;;17.70;99.90;;;;;;5103326;28;20519;-89
2021/09/04 04:18:25;;;;;;;0.10;0.10;;;17.70;99.90;;;;;;5104645;28;20116;-89
2021/09/04 04:20:51;;;;;;;0.00;0.00;;;17.70;99.90;;;;;;5101801;28;20594;-90
2021/09/04 04:23:17;;;;;;;0.10;0.10;;;17.70;99.90;;;;;;5102457;28;20027;-89
2021/09/04 04:25:42;;;;;;;0.57;0.57;;;17.60;99.90;;;;;;5103209;28;20035;-88
2021/09/04 04:28:08;;;;;;;0.20;0.20;;;17.70;99.90;;;;;;5103103;28;20788;-89
2021/09/04 04:30:33;;;;;;;0.10;0.10;;;17.70;99.90;;;;;;5104316;28;20810;-90
2021/09/04 04:32:59;;;;;;;0.50;0.27;;;17.70;99.90;;;;;;5102072;28;20028;-89
2021/09/04 04:35:25;;;;;;;0.00;0.00;;;17.40;99.90;;;;;;5099384;28;20606;-90
2021/09/04 04:37:50;;;;;;;0.17;0.13;;;17.30;99.90;;;;;;5102240;27;20040;-91
2021/09/04 04:40:16;;;;;;;0.20;0.20;;;17.10;99.90;;;;;;5102960;28;20067;-91
2021/09/04 04:42:42;;;;;;;0.20;0.20;;;17.10;99.90;;;;;;5103816;28;20062;-91
2021/09/04 04:45:08;;;;;;;0.20;0.20;;;17.10;99.90;;;;;;5102295;28;20036;-89
2021/09/04 04:47:34;;;;;;;0.73;0.20;;;17.10;99.90;;;;;;5102553;27;20151;-89
2021/09/04 04:50:00;;;;;;;0.30;0.30;;;17.10;99.90;;;;;;5100971;28;20028;-89
2021/09/04 04:52:26;;;;;;;0.22;0.22;;;17.20;99.90;;;;;;5099059;28;20167;-88
2021/09/04 04:54:52;;;;;;;0.07;0.07;;;17.40;99.90;;;;;;5104839;28;20023;-89
2021/09/04 04:57:18;;;;;;;0.13;0.13;;;17.50;99.90;;;;;;5101358;28;20588;-90
2021/09/04 04:59:44;;;;;;;0.20;0.20;;;17.60;99.90;;;;;;5099741;27;20031;-89
2021/09/04 05:02:09;;;;;;;0.10;0.10;;;17.60;99.90;;;;;;5100644;28;20028;-90
2021/09/04 05:04:36;;;;;;;0.10;0.10;;;17.50;99.90;;;;;;5103912;28;20619;-89
2021/09/04 05:07:02;;;;;;;0.10;0.10;;;17.50;99.90;;;;;;5102768;28;20456;-90
2021/09/04 05:09:27;;;;;;;0.20;0.20;;;17.50;99.90;;;;;;5104388;28;20109;-90
2021/09/04 05:11:53;;;;;;;0.00;0.00;;;17.60;99.90;;;;;;5100836;28;20331;-88
2021/09/04 05:14:19;;;;;;;0.17;0.17;;;17.60;99.90;;;;;;5102643;27;20032;-89
2021/09/04 05:16:44;;;;;;;0.10;0.10;;;17.50;99.90;;;;;;5102853;28;20404;-90
2021/09/04 05:19:10;;;;;;;0.50;0.20;;;17.60;99.90;;;;;;5101118;28;20659;-89
2021/09/04 05:21:36;;;;;;;0.10;0.10;;;17.60;99.90;;;;;;5101564;28;20053;-89
2021/09/04 05:24:01;;;;;;;0.10;0.10;;;17.60;99.90;;;;;;5102722;28;20031;-90
2021/09/04 05:26:27;;;;;;;0.07;0.07;;;17.60;99.90;;;;;;5103736;27;20027;-92
2021/09/04 05:28:52;;;;;;;0.00;0.00;;;17.60;99.90;;;;;;5106108;28;20791;-93
2021/09/04 05:31:18;;;;;;;0.20;0.20;;;17.60;99.90;;;;;;5108117;28;20023;-92
2021/09/04 05:33:44;;;;;;;0.20;0.20;;;17.50;99.90;;;;;;5109019;28;20027;-92
2021/09/04 05:36:09;;;;;;;0.30;0.27;;;17.50;99.90;;;;;;5109544;28;20134;-92
2021/09/04 05:38:36;;;;;;;0.27;0.27;;;17.60;99.90;;;;;;5107709;28;20877;-93
2021/09/04 05:41:03;;;;;;;0.00;0.00;;;17.50;99.90;;;;;;5104475;28;20023;-92
2021/09/04 05:43:29;;;;;;;0.00;0.00;;;17.50;99.90;;;;;;5104611;28;20023;-90
2021/09/04 05:45:54;;;;;;;0.00;0.00;;;17.50;99.90;;;;;;5102254;27;20563;-91
2021/09/04 05:48:20;;;;;;;0.63;0.20;;;17.50;99.90;;;;;;5103270;28;20035;-89
2021/09/04 05:50:46;;;;;;;0.00;0.00;;;17.50;99.90;;;;;;5105602;27;20068;-91
2021/09/04 05:53:11;;;;;;;0.00;0.00;;;17.40;99.90;;;;;;5102318;28;20081;-91
2021/09/04 05:55:37;;;;;;;0.50;0.17;;;17.40;99.90;;;;;;5103690;28;20031;-89
2021/09/04 05:58:03;;;;;;;0.13;0.13;;;17.50;99.90;;;;;;5103061;28;20401;-88
2021/09/04 06:00:29;;;;;;;0.00;0.00;;;17.50;99.90;;;;;;5103555;28;20068;-89
2021/09/04 06:02:54;;;;;;;0.10;0.10;;;17.60;99.90;;;;;;5103189;28;20035;-90
2021/09/04 06:05:20;;;;;;;0.10;0.10;;;17.60;99.90;;;;;;5100567;28;20031;-90
2021/09/04 06:07:46;;;;;;;1.03;0.50;;;17.40;99.90;;;;;;5100788;28;20059;-89
2021/09/04 06:10:12;;;;;;;2.53;1.13;;;17.20;99.90;;;;;;5098916;28;20043;-91
2021/09/04 06:12:38;;;;;;;1.17;0.57;;;17.20;99.90;;;;;;5101223;28;20425;-89
2021/09/04 06:15:04;;;;;;;0.13;0.13;;;17.00;99.90;;;;;;5099811;28;20038;-89
2021/09/04 06:17:30;;;;;;;;;;;17.00;99.90;;;;;;5103608;28;20142;-88
2021/09/04 06:19:56;;;;;;;0.30;0.30;;;17.20;99.90;;;;;;5100171;28;20445;-88
2021/09/04 06:22:21;;;;;;;0.20;0.20;;;17.40;99.90;;;;;;5102360;28;21121;-87
2021/09/04 06:24:47;;;;;;;0.37;0.37;;;17.50;99.90;;;;;;5102523;27;20062;-88
2021/09/04 06:27:13;;;;;;;0.33;0.10;;;17.40;99.90;;;;;;5101112;27;20048;-90
2021/09/04 06:29:39;;;;;;;0.50;0.23;;;17.60;99.90;;;;;;5096525;28;20054;-90
2021/09/04 06:32:05;;;;;;;0.20;0.10;;;18.00;99.90;;;;;;5102295;28;20062;-90
2021/09/04 06:34:32;;;;;;;0.40;0.40;;;17.90;99.90;;;;;;5099773;28;20051;-88
2021/09/04 06:36:57;;;;;;;0.20;0.20;;;17.80;99.90;;;;;;5101907;28;20066;-89
2021/09/04 06:39:23;;;;;;;0.77;0.70;;;17.80;99.90;;;;;;5101992;28;20058;-87
2021/09/04 06:41:49;;;;;;;1.50;0.83;;;17.80;99.90;;;;;;5102508;28;20031;-88
2021/09/04 06:44:15;;;;;;;0.10;0.10;;;17.80;99.90;;;;;;5097173;27;20405;-87
2021/09/04 06:46:41;;;;;;;1.40;0.37;;;17.80;99.90;;;;;;5114619;27;20611;-89
2021/09/04 06:49:06;;;;;;;0.00;0.00;;;17.90;99.90;;;;;;5100549;28;20028;-87
2021/09/04 06:51:32;;;;;;;0.37;0.30;;;18.00;99.90;;;;;;5097097;28;20019;-88
2021/09/04 06:53:58;;;;;;;0.30;0.30;;;18.10;99.90;;;;;;5101057;28;20465;-88
2021/09/04 06:56:25;;;;;;;0.00;0.00;;;18.10;99.90;;;;;;5099616;28;20027;-87
2021/09/04 06:58:51;;;;;;;0.20;0.10;;;18.00;99.90;;;;;;5101134;28;20047;-86
2021/09/04 07:01:17;;;;;;;0.13;0.13;;;18.00;99.90;;;;;;5097346;28;20035;-90
2021/09/04 07:03:43;;;;;;;0.10;0.10;;;18.00;99.90;;;;;;5100563;28;20062;-91
2021/09/04 07:06:09;;;;;;;0.10;0.10;;;18.10;99.90;;;;;;5099311;28;20391;-89
2021/09/04 07:08:35;;;;;;;0.10;0.10;;;18.30;99.90;;;;;;5101480;28;20085;-91
2021/09/04 07:11:00;;;;;;;0.10;0.10;;;18.50;99.90;;;;;;5099838;28;20038;-89
2021/09/04 07:13:26;;;;;;;0.10;0.10;;;18.50;99.90;;;;;;5098920;28;20039;-92
2021/09/04 07:15:52;;;;;;;0.30;0.30;;;18.70;99.90;;;;;;5100839;28;20024;-93
2021/09/04 07:18:20;;;;;;;0.50;0.37;;;18.60;99.90;;;;;;5103677;28;20039;-93
2021/09/04 07:20:46;;;;;;;4.20;1.27;;;18.50;99.90;;;;;;5102539;28;20016;-91
2021/09/04 07:23:12;;;;;;;;;;;18.40;99.90;;;;;;5103742;28;20043;-91
2021/09/04 07:25:38;;;;;;;0.23;0.23;;;18.30;99.90;;;;;;5104498;28;19908;-93
2021/09/04 07:28:06;;;;;;;0.07;0.07;;;18.00;99.90;;;;;;5102902;28;20054;-93
2021/09/04 07:30:35;;;;;;;0.25;0.25;;;18.00;99.90;;;;;;5104238;28;20031;-96
2021/09/04 07:33:01;;;;;;;0.75;0.30;;;18.50;99.90;;;;;;5104099;28;20026;-92
2021/09/04 07:35:28;;;;;;;0.15;0.15;;;18.40;99.90;;;;;;5102735;28;20028;-95
2021/09/04 07:37:54;;;;;;;0.10;0.10;;;18.10;99.90;;;;;;5100171;28;20027;-89
2021/09/04 07:40:21;;;;;;;0.30;0.30;;;18.00;99.90;;;;;;5103399;28;20110;-92
2021/09/04 07:42:46;;;;;;;0.10;0.10;;;17.80;99.90;;;;;;5102903;28;20070;-92
2021/09/04 07:45:12;;;;;;;0.10;0.10;;;18.10;99.90;;;;;;5105071;28;20157;-91
2021/09/04 07:47:38;;;;;;;0.00;0.00;;;18.20;99.90;;;;;;5102715;27;20023;-93
2021/09/04 07:50:05;;;;;;;0.70;0.70;;;18.10;99.90;;;;;;5105721;28;20062;-88
2021/09/04 07:52:31;;;;;;;0.00;0.00;;;18.20;99.90;;;;;;5105020;27;20131;-89
2021/09/04 07:54:56;;;;;;;0.10;0.10;;;18.30;99.90;;;;;;5108327;27;20122;-89
2021/09/04 07:57:22;;;;;;;0.23;0.17;;;18.50;99.90;;;;;;5093405;28;20032;-88
2021/09/04 07:59:48;;;;;;;0.30;0.30;;;18.60;99.90;;;;;;5104360;27;20028;-90
2021/09/04 08:02:14;;;;;;;0.00;0.00;;;18.80;99.90;;;;;;5100472;28;20047;-88
2021/09/04 08:04:39;;;;;;;0.17;0.17;;;19.10;99.90;;;;;;5091043;28;20855;-90
2021/09/04 08:07:05;;;;;;;0.00;0.00;;;19.60;99.90;;;;;;5106125;28;20429;-91
2021/09/04 08:09:31;;;;;;;0.00;0.00;;;20.10;99.90;;;;;;5103945;28;20057;-89
2021/09/04 08:11:57;;;;;;;0.43;0.43;;;20.50;99.90;;;;;;5102304;28;20486;-90
2021/09/04 08:14:22;;;;;;;0.10;0.10;;;20.60;99.90;;;;;;5098964;28;20055;-90
2021/09/04 08:16:48;;;;;;;0.10;0.10;;;20.50;99.90;;;;;;5092864;28;20567;-90
2021/09/04 08:19:14;;;;;;;0.00;0.00;;;20.60;99.90;;;;;;5086832;28;20039;-89
2021/09/04 08:21:40;;;;;;;0.23;0.23;;;20.40;99.90;;;;;;5092891;28;20477;-90
2021/09/04 08:24:05;;;;;;;0.47;0.10;;;20.70;99.90;;;;;;5093428;28;20623;-90
2021/09/04 08:26:31;;;;;;;0.23;0.23;;;21.40;99.90;;;;;;5095248;28;20406;-91
2021/09/04 08:28:57;;;;;;;0.47;0.30;;;21.80;99.90;;;;;;5091278;28;20114;-91
2021/09/04 08:31:22;;;;;;;0.27;0.20;;;21.70;99.90;;;;;;5104867;28;20034;-91
2021/09/04 08:33:48;;;;;;;0.03;0.03;;;21.50;99.90;;;;;;5104606;28;20020;-92
2021/09/04 08:36:14;;;;;;;0.17;0.17;;;21.20;99.90;;;;;;5125246;27;20028;-93
2021/09/04 08:38:40;;;;;;;0.60;0.20;;;21.20;99.90;;;;;;5097730;28;20301;-91
2021/09/04 08:41:06;;;;;;;0.13;0.13;;;21.30;99.90;;;;;;5101147;28;20233;-90
2021/09/04 08:43:33;;;;;;;0.00;0.00;;;21.90;99.90;;;;;;5092902;28;20462;-90
2021/09/04 08:46:00;;;;;;;0.10;0.10;;;21.80;99.90;;;;;;5089921;28;20196;-89
2021/09/04 08:48:26;;;;;;;0.20;0.20;;;22.30;99.90;;;;;;5094130;28;20288;-90
2021/09/04 08:50:53;;;;;;;0.30;0.30;;;22.50;99.90;;;;;;5095127;28;20541;-91
2021/09/04 08:53:20;;;;;;;0.10;0.10;;;23.10;99.90;;;;;;5094474;28;20043;-91
2021/09/04 08:55:46;;;;;;;0.10;0.10;;;24.10;99.90;;;;;;5089997;28;20035;-90
2021/09/04 08:58:12;;;;;;;0.88;0.52;;;25.20;99.90;;;;;;5104489;28;20062;-90
2021/09/04 09:00:40;;;;;;;0.10;0.10;;;25.20;99.90;;;;;;5103108;28;20502;-91
2021/09/04 09:03:19;;;;;;;0.10;0.10;;;24.90;99.90;;;;;;5101395;28;20043;-90
2021/09/04 09:05:44;;;;;;;0.68;0.68;;;24.90;99.90;;;;;;5094984;28;20028;-91
2021/09/04 09:08:16;;;;;;;0.10;0.10;;;25.10;99.90;;;;;;5092744;28;20047;-90
2021/09/04 09:10:42;;;;;;;0.17;0.17;;;25.70;99.90;;;;;;5101814;28;20024;-90
2021/09/04 09:13:07;;;;;;;0.10;0.10;;;26.70;99.90;;;;;;5105190;27;20226;-90
2021/09/04 09:15:37;;;;;;;0.23;0.23;;;26.10;99.90;;;;;;5103206;28;20323;-91
2021/09/04 09:18:12;;;;;;;0.15;0.10;;;27.70;99.90;;;;;;5105573;27;20679;-90
2021/09/04 09:20:39;;;;;;;1.15;0.85;;;28.40;99.90;;;;;;5096358;28;20020;-89
2021/09/04 09:23:07;;;;;;;0.22;0.22;;;26.80;99.90;;;;;;5092132;28;20035;-90
2021/09/04 09:25:34;;;;;;;0.52;0.52;;;24.30;99.90;;;;;;5102253;28;20019;-90
2021/09/04 09:28:09;;;;;;;1.02;0.55;;;23.60;99.90;;;;;;5102876;28;20053;-91
2021/09/04 09:30:44;;;;;;;0.15;0.15;;;23.70;99.90;;;;;;5102658;28;20055;-91
2021/09/04 09:33:13;;;;;;;0.10;0.10;;;23.60;99.90;;;;;;5100603;28;20040;-91
2021/09/04 09:35:47;;;;;;;0.55;0.55;;;24.00;99.90;;;;;;5096471;28;20030;-90
2021/09/04 09:38:16;;;;;;;0.90;0.47;;;24.70;99.90;;;;;;5092559;28;20034;-91
2021/09/04 09:40:43;;;;;;;0.28;0.20;;;27.80;99.90;;;;;;5101095;28;20035;-90
2021/09/04 09:43:13;;;;;;;0.70;0.32;;;27.90;99.90;;;;;;5104754;28;20095;-89
2021/09/04 09:45:50;;;;;;;0.50;0.30;;;28.20;99.90;;;;;;5102500;28;20031;-89
2021/09/04 09:48:18;;;;;;;0.25;0.25;;;27.30;99.90;;;;;;5099773;28;20027;-90
2021/09/04 09:50:44;;;;;;;0.10;0.10;;;26.20;99.90;;;;;;5100234;28;20031;-89
2021/09/04 09:53:10;;;;;;;0.10;0.10;;;25.30;99.90;;;;;;5100507;28;20027;-91
2021/09/04 09:55:36;;;;;;;0.10;0.10;;;24.70;99.90;;;;;;5101110;28;20068;-90
2021/09/04 09:58:02;;;;;;;0.22;0.22;;;24.20;99.90;;;;;;5103085;28;20078;-91
2021/09/04 10:00:30;;;;;;;0.43;0.40;;;23.60;99.90;;;;;;5102098;28;20048;-91
2021/09/04 10:03:00;;;;;;;0.30;0.30;;;23.70;99.90;;;;;;5099680;28;20031;-89
2021/09/04 10:05:30;;;;;;;0.10;0.10;;;23.80;99.90;;;;;;5099662;28;20055;-90
2021/09/04 10:07:57;;;;;;;0.10;0.10;;;23.50;99.90;;;;;;5100710;28;20047;-91
2021/09/04 10:10:26;;;;;;;0.00;0.00;;;23.10;99.90;;;;;;5087769;28;20090;-91
2021/09/04 10:12:52;;;;;;;0.10;0.10;;;22.60;99.90;;;;;;5088430;28;20028;-90
2021/09/04 10:15:20;;;;;;;1.85;0.30;;;22.90;99.90;;;;;;5090729;28;20043;-90
2021/09/04 10:17:48;;;;;;;0.20;0.20;;;26.80;99.90;;;;;;5096394;28;20042;-90
2021/09/04 10:20:14;;;;;;;0.00;0.00;;;24.00;99.90;;;;;;5099698;28;20076;-90
2021/09/04 10:22:41;;;;;;;0.10;0.10;;;22.50;99.90;;;;;;5099953;28;20046;-90
2021/09/04 10:25:19;;;;;;;0.08;0.08;;;22.30;99.90;;;;;;5102985;28;20524;-90
2021/09/04 10:27:47;;;;;;;0.00;0.00;;;21.90;99.90;;;;;;5102279;28;20027;-90
2021/09/04 10:30:25;;;;;;;0.55;0.55;;;21.90;99.90;;;;;;5086346;28;20092;-90
2021/09/04 10:32:59;;;;;;;0.08;0.08;;;22.40;99.90;;;;;;5093142;28;20047;-91
2021/09/04 10:35:56;;;;;;;0.47;0.47;;;25.10;99.90;;;;;;5099408;28;20032;-90
2021/09/04 10:38:23;;;;;;;0.38;0.20;;;23.30;99.90;;;;;;5099143;28;20478;-89
2021/09/04 10:41:19;;;;;;;4.18;0.22;;;23.40;99.90;;;;;;5098784;28;20742;-90
2021/09/04 10:43:47;;;;;;;0.45;0.35;;;23.70;99.90;;;;;;5099780;28;20031;-90
2021/09/04 10:46:15;;;;;;;0.43;0.43;;;23.60;99.90;;;;;;5087160;28;20896;-89
2021/09/04 10:48:42;;;;;;;0.57;0.20;;;24.00;99.90;;;;;;5101440;28;20039;-90
2021/09/04 10:51:08;;;;;;;;;;;23.80;99.90;;;;;;5099556;28;20066;-90
2021/09/04 10:53:45;;;;;;;0.52;0.25;;;24.50;99.90;;;;;;5098390;28;19911;-88
2021/09/04 10:56:25;;;;;;;0.13;0.13;;;24.20;99.90;;;;;;5098538;28;20080;-90
2021/09/04 10:58:52;;;;;;;0.20;0.20;;;23.60;99.90;;;;;;5098667;28;20050;-90
2021/09/04 11:01:33;;;;;;;0.95;0.90;;;23.20;99.90;;;;;;5102682;28;20023;-90
2021/09/04 11:03:59;;;;;;;0.65;0.60;;;23.50;99.90;;;;;;5101485;28;20027;-90
2021/09/04 11:06:25;;;;;;;0.47;0.47;;;23.80;99.90;;;;;;5089570;28;20599;-91
2021/09/04 11:08:53;;;;;;;0.20;0.20;;;23.70;99.90;;;;;;5095809;28;20046;-91
2021/09/04 11:11:24;;;;;;;0.40;0.40;;;23.80;99.90;;;;;;5098427;28;20030;-91
2021/09/04 11:14:21;;;;;;;0.20;0.20;;;23.50;99.90;;;;;;5098084;28;20485;-90
2021/09/04 11:16:58;;;;;;;0.00;0.00;;;24.00;99.90;;;;;;5089666;28;20504;-91
2021/09/04 11:19:26;;;;;;;0.20;0.20;;;24.60;99.90;;;;;;5101489;28;20043;-90
2021/09/04 11:22:00;;;;;;;0.00;0.00;;;25.00;99.90;;;;;;5099040;28;20182;-90
2021/09/04 11:24:36;;;;;;;0.98;0.85;;;25.00;99.90;;;;;;5089273;28;20486;-90
2021/09/04 11:27:07;;;;;;;;;;;24.40;99.90;;;;;;5097551;28;20028;-87
2021/09/04 11:29:53;;;;;;;0.22;0.22;;;24.60;99.90;;;;;;5098058;28;19972;-88
2021/09/04 11:32:22;;;;;;;0.35;0.25;;;25.60;99.90;;;;;;5096994;28;20902;-87
2021/09/04 11:34:54;;;;;;;1.90;0.50;;;26.20;99.90;;;;;;5086875;28;20036;-87
2021/09/04 11:37:29;;;;;;;0.08;0.08;;;25.90;99.90;;;;;;5100179;28;20114;-91
2021/09/04 11:40:11;;;;;;;0.30;0.30;;;25.60;99.90;;;;;;5086998;28;20032;-89
2021/09/04 11:42:45;;;;;;;0.45;0.45;;;25.80;99.90;;;;;;5089001;28;20111;-91
2021/09/04 11:45:12;;;;;;;2.42;0.30;;;25.30;99.90;;;;;;5099180;28;20062;-89
2021/09/04 11:47:40;;;;;;;0.57;0.50;;;25.20;99.90;;;;;;5098244;28;20450;-90
2021/09/04 11:50:10;;;;;;;1.55;0.35;;;25.40;99.90;;;;;;5097838;28;20032;-91
2021/09/04 11:52:39;;;;;;;0.08;0.08;;;25.30;99.90;;;;;;5099506;28;20027;-90
2021/09/04 11:55:14;;;;;;;0.30;0.25;;;26.20;99.90;;;;;;5101077;28;20059;-90
2021/09/04 11:57:45;;;;;;;0.20;0.10;;;26.00;99.60;;;;;;5088860;28;20031;-91
2021/09/04 12:00:18;;;;;;;0.85;0.50;;;25.20;99.90;;;;;;5098172;28;20129;-90
2021/09/04 12:02:48;;;;;;;0.15;0.15;;;25.40;99.90;;;;;;5097758;28;20525;-89
2021/09/04 12:05:15;;;;;;;0.40;0.40;;;25.10;99.90;;;;;;5097477;28;20146;-91
2021/09/04 12:07:42;;;;;;;0.10;0.10;;;25.10;99.90;;;;;;5097948;28;20056;-91
2021/09/04 12:10:10;;;;;;;0.20;0.20;;;25.40;99.90;;;;;;5100557;28;20032;-89
2021/09/04 12:12:37;;;;;;;0.10;0.10;;;25.70;99.90;;;;;;5088959;28;20035;-90
2021/09/04 12:15:04;;;;;;;0.10;0.10;;;26.10;99.80;;;;;;5095334;28;20037;-89
2021/09/04 12:17:31;;;;;;;0.10;0.10;;;26.60;99.80;;;;;;5091434;28;20123;-90
2021/09/04 12:20:08;;;;;;;;;;;26.80;98.70;;;;;;5088159;28;20043;-90
2021/09/04 12:22:33;;;;;;;0.85;0.52;;;26.70;98.80;;;;;;5099420;28;19912;-90
2021/09/04 12:25:00;;;;;;;0.00;0.00;;;26.60;97.60;;;;;;5100785;28;20038;-88
2021/09/04 12:27:39;;;;;;;0.20;0.20;;;25.70;99.40;;;;;;5099615;28;20026;-90
2021/09/04 12:30:06;;;;;;;0.50;0.35;;;25.50;99.90;;;;;;5097287;28;20394;-89
2021/09/04 12:32:36;;;;;;;1.77;0.32;;;25.40;99.90;;;;;;5098262;28;20026;-90
2021/09/04 12:35:06;;;;;;;0.10;0.10;;;25.50;99.90;;;;;;5099462;28;20067;-89
2021/09/04 12:37:33;;;;;;;0.10;0.10;;;25.70;99.90;;;;;;5089599;28;20520;-90
2021/09/04 12:40:06;;;;;;;0.10;0.10;;;26.00;99.60;;;;;;5103682;28;20039;-89
2021/09/04 12:42:32;;;;;;;0.20;0.03;;;26.60;98.50;;;;;;5091607;28;20406;-90
2021/09/04 12:45:05;;;;;;;0.30;0.20;;;26.50;97.60;;;;;;5099054;28;20039;-90
2021/09/04 12:47:47;;;;;;;0.10;0.10;;;26.60;96.80;;;;;;5101065;28;20293;-89
2021/09/04 12:50:39;;;;;;;0.10;0.10;;;26.30;96.20;;;;;;5100262;28;20115;-89